sensor_id;sensor_type;location;lat;lon;timestamp;pressure;altitude;pressure_sealevel;temperature;humidity
9421;BME280;4749;51.398;5.466;2024-03-17T00:00:24;102149.72;;;6.74;100.00
9421;BME280;4749;51.398;5.466;2024-03-17T00:02:51;102143.59;;;6.74;100.00
9421;BME280;4749;51.398;5.466;2024-03-17T00:05:17;102141.72;;;6.71;100.00
9421;BME280;4749;51.398;5.466;2024-03-17T00:07:44;102141.72;;;6.71;100.00
9421;BME280;4749;51.398;5.466;2024-03-17T00:10:11;102140.88;;;6.72;100.00
9421;BME280;4749;51.398;5.466;2024-03-17T00:12:37;102135.66;;;6.72;100.00
9421;BME280;4749;51.398;5.466;2024-03-17T00:15:05;102128.75;;;6.73;100.00
9421;BME280;4749;51.398;5.466;2024-03-17T00:17:32;102129.63;;;6.73;100.00
9421;BME280;4749;51.398;5.466;2024-03-17T00:20:02;102129.53;;;6.72;100.00
9421;BME280;4749;51.398;5.466;2024-03-17T00:22:35;102130.38;;;6.71;100.00
9421;BME280;4749;51.398;5.466;2024-03-17T00:25:07;102124.22;;;6.69;100.00
9421;BME280;4749;51.398;5.466;2024-03-17T00:27:34;102125.09;;;6.69;100.00
9421;BME280;4749;51.398;5.466;2024-03-17T00:30:07;102120.72;;;6.68;100.00
9421;BME280;4749;51.398;5.466;2024-03-17T00:32:39;102122.50;;;6.69;100.00
9421;BME280;4749;51.398;5.466;2024-03-17T00:35:07;102128.59;;;6.70;100.00
9421;BME280;4749;51.398;5.466;2024-03-17T00:37:35;102123.44;;;6.71;100.00
9421;BME280;4749;51.398;5.466;2024-03-17T00:40:02;102121.66;;;6.70;100.00
9421;BME280;4749;51.398;5.466;2024-03-17T00:42:29;102127.81;;;6.72;100.00
9421;BME280;4749;51.398;5.466;2024-03-17T00:44:56;102130.56;;;6.75;100.00
9421;BME280;4749;51.398;5.466;2024-03-17T00:47:22;102135.84;;;6.77;100.00
9421;BME280;4749;51.398;5.466;2024-03-17T00:49:48;102124.63;;;6.80;100.00
9421;BME280;4749;51.398;5.466;2024-03-17T00:52:17;102116.84;;;6.81;100.00
9421;BME280;4749;51.398;5.466;2024-03-17T00:54:46;102113.41;;;6.82;100.00
9421;BME280;4749;51.398;5.466;2024-03-17T00:57:13;102116.91;;;6.83;100.00
9421;BME280;4749;51.398;5.466;2024-03-17T00:59:39;102117.81;;;6.83;100.00
9421;BME280;4749;51.398;5.466;2024-03-17T01:02:05;102112.56;;;6.83;100.00
9421;BME280;4749;51.398;5.466;2024-03-17T01:04:31;102116.84;;;6.81;100.00
9421;BME280;4749;51.398;5.466;2024-03-17T01:07:00;102110.66;;;6.79;100.00
9421;BME280;4749;51.398;5.466;2024-03-17T01:09:26;102111.53;;;6.80;100.00
9421;BME280;4749;51.398;5.466;2024-03-17T01:11:52;102107.06;;;6.75;100.00
9421;BME280;4749;51.398;5.466;2024-03-17T01:14:18;102099.91;;;6.71;100.00
9421;BME280;4749;51.398;5.466;2024-03-17T01:16:44;102095.41;;;6.67;100.00
9421;BME280;4749;51.398;5.466;2024-03-17T01:19:12;102096.09;;;6.63;100.00
9421;BME280;4749;51.398;5.466;2024-03-17T01:21:38;102096.88;;;6.61;100.00
9421;BME280;4749;51.398;5.466;2024-03-17T01:24:04;102093.28;;;6.57;100.00
9421;BME280;4749;51.398;5.466;2024-03-17T01:26:30;102077.34;;;6.51;100.00
9421;BME280;4749;51.398;5.466;2024-03-17T01:28:56;102076.41;;;6.49;100.00
9421;BME280;4749;51.398;5.466;2024-03-17T01:31:22;102082.34;;;6.45;100.00
9421;BME280;4749;51.398;5.466;2024-03-17T01:33:48;102076.13;;;6.41;100.00
9421;BME280;4749;51.398;5.466;2024-03-17T01:36:14;102076.94;;;6.40;100.00
9421;BME280;4749;51.398;5.466;2024-03-17T01:38:40;102071.56;;;6.37;100.00
9421;BME280;4749;51.398;5.466;2024-03-17T01:41:06;102071.53;;;6.36;100.00
9421;BME280;4749;51.398;5.466;2024-03-17T01:43:33;102061.03;;;6.34;100.00
9421;BME280;4749;51.398;5.466;2024-03-17T01:45:59;102066.34;;;6.37;100.00
9421;BME280;4749;51.398;5.466;2024-03-17T01:48:26;102062.91;;;6.38;100.00
9421;BME280;4749;51.398;5.466;2024-03-17T01:50:55;102061.28;;;6.40;100.00
9421;BME280;4749;51.398;5.466;2024-03-17T01:53:23;102071.00;;;6.44;100.00
9421;BME280;4749;51.398;5.466;2024-03-17T01:55:52;102071.19;;;6.49;100.00
9421;BME280;4749;51.398;5.466;2024-03-17T01:58:20;102072.25;;;6.54;100.00
9421;BME280;4749;51.398;5.466;2024-03-17T02:00:50;102069.88;;;6.60;100.00
9421;BME280;4749;51.398;5.466;2024-03-17T02:03:18;102059.59;;;6.65;100.00
9421;BME280;4749;51.398;5.466;2024-03-17T02:05:44;102052.75;;;6.68;100.00
9421;BME280;4749;51.398;5.466;2024-03-17T02:08:11;102052.94;;;6.73;100.00
9421;BME280;4749;51.398;5.466;2024-03-17T02:10:37;102053.03;;;6.76;100.00
9421;BME280;4749;51.398;5.466;2024-03-17T02:13:04;102054.13;;;6.81;100.00
9421;BME280;4749;51.398;5.466;2024-03-17T02:15:32;102054.22;;;6.84;100.00
9421;BME280;4749;51.398;5.466;2024-03-17T02:17:59;102054.38;;;6.89;100.00
9421;BME280;4749;51.398;5.466;2024-03-17T02:20:25;102057.19;;;6.93;100.00
9421;BME280;4749;51.398;5.466;2024-03-17T02:23:12;102052.03;;;6.96;100.00
9421;BME280;4749;51.398;5.466;2024-03-17T02:25:38;102050.50;;;7.01;100.00
9421;BME280;4749;51.398;5.466;2024-03-17T02:28:05;102045.38;;;7.04;100.00
9421;BME280;4749;51.398;5.466;2024-03-17T02:30:31;102048.97;;;7.07;100.00
9421;BME280;4749;51.398;5.466;2024-03-17T02:32:57;102044.66;;;7.09;100.00
9421;BME280;4749;51.398;5.466;2024-03-17T02:35:24;102037.03;;;7.15;100.00
9421;BME280;4749;51.398;5.466;2024-03-17T02:37:50;102030.97;;;7.16;100.00
9421;BME280;4749;51.398;5.466;2024-03-17T02:40:17;102035.31;;;7.15;100.00
9421;BME280;4749;51.398;5.466;2024-03-17T02:42:45;102028.34;;;7.16;100.00
9421;BME280;4749;51.398;5.466;2024-03-17T02:45:12;102024.94;;;7.18;100.00
9421;BME280;4749;51.398;5.466;2024-03-17T02:47:39;102026.72;;;7.19;100.00
9421;BME280;4749;51.398;5.466;2024-03-17T02:50:07;102025.88;;;7.20;100.00
9421;BME280;4749;51.398;5.466;2024-03-17T02:52:33;102025.03;;;7.21;100.00
9421;BME280;4749;51.398;5.466;2024-03-17T02:54:59;102032.13;;;7.24;100.00
9421;BME280;4749;51.398;5.466;2024-03-17T02:57:26;102033.91;;;7.25;100.00
9421;BME280;4749;51.398;5.466;2024-03-17T02:59:56;102031.28;;;7.25;100.00
9421;BME280;4749;51.398;5.466;2024-03-17T03:02:23;102040.97;;;7.27;100.00
9421;BME280;4749;51.398;5.466;2024-03-17T03:04:49;102034.91;;;7.28;100.00
9421;BME280;4749;51.398;5.466;2024-03-17T03:07:15;102028.06;;;7.32;100.00
9421;BME280;4749;51.398;5.466;2024-03-17T03:09:42;102020.22;;;7.32;100.00
9421;BME280;4749;51.398;5.466;2024-03-17T03:12:08;102027.22;;;7.33;100.00
9421;BME280;4749;51.398;5.466;2024-03-17T03:14:34;102030.72;;;7.33;100.00
9421;BME280;4749;51.398;5.466;2024-03-17T03:17:00;102032.44;;;7.33;100.00
9421;BME280;4749;51.398;5.466;2024-03-17T03:19:27;102026.38;;;7.34;100.00
9421;BME280;4749;51.398;5.466;2024-03-17T03:21:54;102034.28;;;7.36;100.00
9421;BME280;4749;51.398;5.466;2024-03-17T03:24:20;102021.25;;;7.37;100.00
9421;BME280;4749;51.398;5.466;2024-03-17T03:26:46;102035.34;;;7.41;100.00
9421;BME280;4749;51.398;5.466;2024-03-17T03:29:12;102023.97;;;7.40;100.00
9421;BME280;4749;51.398;5.466;2024-03-17T03:31:40;102024.88;;;7.41;100.00
9421;BME280;4749;51.398;5.466;2024-03-17T03:34:07;102022.25;;;7.41;100.00
9421;BME280;4749;51.398;5.466;2024-03-17T03:36:35;102010.94;;;7.42;100.00
9421;BME280;4749;51.398;5.466;2024-03-17T03:39:04;102017.06;;;7.42;100.00
9421;BME280;4749;51.398;5.466;2024-03-17T03:41:32;102003.09;;;7.42;100.00
9421;BME280;4749;51.398;5.466;2024-03-17T03:44:01;102004.81;;;7.41;100.00
9421;BME280;4749;51.398;5.466;2024-03-17T03:46:28;102010.94;;;7.42;100.00
9421;BME280;4749;51.398;5.466;2024-03-17T03:48:54;102012.72;;;7.43;100.00
9421;BME280;4749;51.398;5.466;2024-03-17T03:51:20;101996.19;;;7.44;100.00
9421;BME280;4749;51.398;5.466;2024-03-17T03:53:46;102005.75;;;7.43;100.00
9421;BME280;4749;51.398;5.466;2024-03-17T03:56:12;102002.22;;;7.41;100.00
9421;BME280;4749;51.398;5.466;2024-03-17T03:58:39;101987.28;;;7.39;100.00
9421;BME280;4749;51.398;5.466;2024-03-17T04:01:07;101981.91;;;7.34;100.00
9421;BME280;4749;51.398;5.466;2024-03-17T04:03:35;101981.72;;;7.29;100.00
9421;BME280;4749;51.398;5.466;2024-03-17T04:06:10;101983.31;;;7.24;100.00
9421;BME280;4749;51.398;5.466;2024-03-17T04:08:38;101979.66;;;7.19;100.00
9421;BME280;4749;51.398;5.466;2024-03-17T04:11:08;101975.09;;;7.14;100.00
9421;BME280;4749;51.398;5.466;2024-03-17T04:13:35;101970.59;;;7.10;100.00
9421;BME280;4749;51.398;5.466;2024-03-17T04:16:04;101973.88;;;7.04;100.00
9421;BME280;4749;51.398;5.466;2024-03-17T04:18:31;101971.16;;;7.01;100.00
9421;BME280;4749;51.398;5.466;2024-03-17T04:21:05;101973.78;;;7.01;100.00
9421;BME280;4749;51.398;5.466;2024-03-17T04:23:33;101970.28;;;7.00;100.00
9421;BME280;4749;51.398;5.466;2024-03-17T04:26:00;101968.47;;;6.98;100.00
9421;BME280;4749;51.398;5.466;2024-03-17T04:28:27;101960.47;;;6.95;100.00
9421;BME280;4749;51.398;5.466;2024-03-17T04:31:07;101961.28;;;6.92;100.00
9421;BME280;4749;51.398;5.466;2024-03-17T04:33:34;101956.88;;;6.91;100.00
9421;BME280;4749;51.398;5.466;2024-03-17T04:36:01;101958.66;;;6.92;100.00
9421;BME280;4749;51.398;5.466;2024-03-17T04:38:28;101949.03;;;6.91;100.00
9421;BME280;4749;51.398;5.466;2024-03-17T04:40:54;101950.78;;;6.91;100.00
9421;BME280;4749;51.398;5.466;2024-03-17T04:43:35;101958.53;;;6.89;100.00
9421;BME280;4749;51.398;5.466;2024-03-17T04:46:05;101946.16;;;6.84;100.00
9421;BME280;4749;51.398;5.466;2024-03-17T04:48:33;101953.06;;;6.82;100.00
9421;BME280;4749;51.398;5.466;2024-03-17T04:51:00;101951.22;;;6.79;100.00
9421;BME280;4749;51.398;5.466;2024-03-17T04:53:27;101952.84;;;6.75;100.00
9421;BME280;4749;51.398;5.466;2024-03-17T04:56:04;101948.41;;;6.73;100.00
9421;BME280;4749;51.398;5.466;2024-03-17T04:58:34;101946.44;;;6.67;100.00
9421;BME280;4749;51.398;5.466;2024-03-17T05:01:08;101951.66;;;6.67;100.00
9421;BME280;4749;51.398;5.466;2024-03-17T05:03:35;101954.09;;;6.63;100.00
9421;BME280;4749;51.398;5.466;2024-03-17T05:06:05;101949.66;;;6.60;100.00
9421;BME280;4749;51.398;5.466;2024-03-17T05:08:33;101952.22;;;6.59;100.00
9421;BME280;4749;51.398;5.466;2024-03-17T05:11:05;101952.00;;;6.53;100.00
9421;BME280;4749;51.398;5.466;2024-03-17T05:13:36;101945.81;;;6.51;100.00
9421;BME280;4749;51.398;5.466;2024-03-17T05:16:04;101942.38;;;6.52;100.00
9421;BME280;4749;51.398;5.466;2024-03-17T05:18:31;101942.38;;;6.52;100.00
9421;BME280;4749;51.398;5.466;2024-03-17T05:21:03;101944.09;;;6.51;100.00
9421;BME280;4749;51.398;5.466;2024-03-17T05:23:32;101940.56;;;6.49;100.00
9421;BME280;4749;51.398;5.466;2024-03-17T05:25:59;101943.03;;;6.46;100.00
9421;BME280;4749;51.398;5.466;2024-03-17T05:28:27;101941.09;;;6.40;100.00
9421;BME280;4749;51.398;5.466;2024-03-17T05:30:54;101935.94;;;6.42;100.00
9421;BME280;4749;51.398;5.466;2024-03-17T05:33:21;101940.13;;;6.38;100.00
9421;BME280;4749;51.398;5.466;2024-03-17T05:35:58;101945.50;;;6.41;100.00
9421;BME280;4749;51.398;5.466;2024-03-17T05:38:26;101941.03;;;6.39;100.00
9421;BME280;4749;51.398;5.466;2024-03-17T05:40:58;101934.81;;;6.35;100.00
9421;BME280;4749;51.398;5.466;2024-03-17T05:43:31;101930.41;;;6.34;100.00
9421;BME280;4749;51.398;5.466;2024-03-17T05:46:00;101933.91;;;6.35;100.00
9421;BME280;4749;51.398;5.466;2024-03-17T05:48:27;101936.53;;;6.35;100.00
9421;BME280;4749;51.398;5.466;2024-03-17T05:50:53;101924.31;;;6.34;100.00
9421;BME280;4749;51.398;5.466;2024-03-17T05:53:21;101927.81;;;6.34;100.00
9421;BME280;4749;51.398;5.466;2024-03-17T05:55:50;101929.59;;;6.35;100.00
9421;BME280;4749;51.398;5.466;2024-03-17T05:58:16;101936.59;;;6.36;100.00
9421;BME280;4749;51.398;5.466;2024-03-17T06:00:42;101937.53;;;6.38;100.00
9421;BME280;4749;51.398;5.466;2024-03-17T06:03:10;101937.59;;;6.40;100.00
9421;BME280;4749;51.398;5.466;2024-03-17T06:05:38;101935.03;;;6.41;100.00
9421;BME280;4749;51.398;5.466;2024-03-17T06:08:05;101940.38;;;6.44;100.00
9421;BME280;4749;51.398;5.466;2024-03-17T06:10:32;101942.19;;;6.47;100.00
9421;BME280;4749;51.398;5.466;2024-03-17T06:12:59;101946.72;;;6.51;100.00
9421;BME280;4749;51.398;5.466;2024-03-17T06:15:26;101956.50;;;6.57;100.00
9421;BME280;4749;51.398;5.466;2024-03-17T06:17:55;101953.16;;;6.61;100.00
9421;BME280;4749;51.398;5.466;2024-03-17T06:20:24;101951.63;;;6.66;100.00
9421;BME280;4749;51.398;5.466;2024-03-17T06:22:56;101954.44;;;6.72;100.00
9421;BME280;4749;51.398;5.466;2024-03-17T06:25:23;101948.59;;;6.79;100.00
9421;BME280;4749;51.398;5.466;2024-03-17T06:27:52;101949.72;;;6.86;100.00
9421;BME280;4749;51.398;5.466;2024-03-17T06:30:18;101950.03;;;6.95;100.00
9421;BME280;4749;51.398;5.466;2024-03-17T06:32:46;101947.00;;;7.08;100.00
9421;BME280;4749;51.398;5.466;2024-03-17T06:35:13;101949.19;;;7.21;100.00
9421;BME280;4749;51.398;5.466;2024-03-17T06:37:47;101945.88;;;7.25;100.00
9421;BME280;4749;51.398;5.466;2024-03-17T06:40:14;101940.94;;;7.34;100.00
9421;BME280;4749;51.398;5.466;2024-03-17T06:42:41;101944.75;;;7.44;100.00
9421;BME280;4749;51.398;5.466;2024-03-17T06:45:08;101951.09;;;7.52;100.00
9421;BME280;4749;51.398;5.466;2024-03-17T06:47:40;101960.94;;;7.59;100.00
9421;BME280;4749;51.398;5.466;2024-03-17T06:50:07;101958.47;;;7.64;100.00
9421;BME280;4749;51.398;5.466;2024-03-17T06:52:36;101952.47;;;7.67;100.00
9421;BME280;4749;51.398;5.466;2024-03-17T06:55:03;101964.81;;;7.72;100.00
9421;BME280;4749;51.398;5.466;2024-03-17T06:57:29;101960.00;;;7.84;100.00
9421;BME280;4749;51.398;5.466;2024-03-17T06:59:56;101958.69;;;7.99;100.00
9421;BME280;4749;51.398;5.466;2024-03-17T07:02:22;101958.03;;;8.06;100.00
9421;BME280;4749;51.398;5.466;2024-03-17T07:04:48;101953.06;;;8.15;100.00
9421;BME280;4749;51.398;5.466;2024-03-17T07:07:14;101939.47;;;8.27;100.00
9421;BME280;4749;51.398;5.466;2024-03-17T07:09:41;101946.13;;;8.44;100.00
9421;BME280;4749;51.398;5.466;2024-03-17T07:12:08;101932.66;;;8.62;100.00
9421;BME280;4749;51.398;5.466;2024-03-17T07:14:35;101927.00;;;8.80;100.00
9421;BME280;4749;51.398;5.466;2024-03-17T07:17:03;101922.25;;;8.98;100.00
9421;BME280;4749;51.398;5.466;2024-03-17T07:19:30;101926.97;;;9.11;100.00
9421;BME280;4749;51.398;5.466;2024-03-17T07:21:57;101914.06;;;9.19;100.00
9421;BME280;4749;51.398;5.466;2024-03-17T07:24:23;101919.47;;;9.25;100.00
9421;BME280;4749;51.398;5.466;2024-03-17T07:26:50;101926.78;;;9.38;100.00
9421;BME280;4749;51.398;5.466;2024-03-17T07:29:16;101931.50;;;9.51;100.00
9421;BME280;4749;51.398;5.466;2024-03-17T07:31:43;101925.78;;;9.69;100.00
9421;BME280;4749;51.398;5.466;2024-03-17T07:34:09;101934.09;;;9.87;100.00
9421;BME280;4749;51.398;5.466;2024-03-17T07:36:35;101924.91;;;10.08;100.00
9421;BME280;4749;51.398;5.466;2024-03-17T07:39:02;101931.56;;;10.30;100.00
9421;BME280;4749;51.398;5.466;2024-03-17T07:41:28;101929.28;;;10.48;100.00
9421;BME280;4749;51.398;5.466;2024-03-17T07:43:54;101928.69;;;10.61;100.00
9421;BME280;4749;51.398;5.466;2024-03-17T07:46:20;101920.84;;;10.63;100.00
9421;BME280;4749;51.398;5.466;2024-03-17T07:48:46;101920.81;;;10.61;100.00
9421;BME280;4749;51.398;5.466;2024-03-17T07:51:14;101931.22;;;10.57;100.00
9421;BME280;4749;51.398;5.466;2024-03-17T07:53:44;101925.88;;;10.52;100.00
9421;BME280;4749;51.398;5.466;2024-03-17T07:56:12;101924.00;;;10.47;100.00
9421;BME280;4749;51.398;5.466;2024-03-17T07:58:42;101930.16;;;10.47;100.00
9421;BME280;4749;51.398;5.466;2024-03-17T08:01:14;101921.53;;;10.54;100.00
9421;BME280;4749;51.398;5.466;2024-03-17T08:03:45;101921.75;;;10.65;100.00
9421;BME280;4749;51.398;5.466;2024-03-17T08:06:12;101918.44;;;10.75;100.00
9421;BME280;4749;51.398;5.466;2024-03-17T08:08:38;101909.00;;;10.86;100.00
9421;BME280;4749;51.398;5.466;2024-03-17T08:11:05;101906.53;;;10.94;100.00
9421;BME280;4749;51.398;5.466;2024-03-17T08:13:32;101907.63;;;11.07;100.00
9421;BME280;4749;51.398;5.466;2024-03-17T08:16:03;101910.38;;;11.14;100.00
9421;BME280;4749;51.398;5.466;2024-03-17T08:18:32;101912.25;;;11.21;100.00
9421;BME280;4749;51.398;5.466;2024-03-17T08:21:01;101912.38;;;11.27;100.00
9421;BME280;4749;51.398;5.466;2024-03-17T08:23:30;101914.16;;;11.30;100.00
9421;BME280;4749;51.398;5.466;2024-03-17T08:25:58;101916.84;;;11.33;100.00
9421;BME280;4749;51.398;5.466;2024-03-17T08:28:25;101917.78;;;11.37;100.00
9421;BME280;4749;51.398;5.466;2024-03-17T08:30:58;101919.63;;;11.42;100.00
9421;BME280;4749;51.398;5.466;2024-03-17T08:33:25;101910.94;;;11.48;100.00
9421;BME280;4749;51.398;5.466;2024-03-17T08:36:03;101910.13;;;11.52;100.00
9421;BME280;4749;51.398;5.466;2024-03-17T08:38:32;101909.31;;;11.57;100.00
9421;BME280;4749;51.398;5.466;2024-03-17T08:41:08;101907.66;;;11.63;100.00
9421;BME280;4749;51.398;5.466;2024-03-17T08:43:37;101916.56;;;11.69;100.00
9421;BME280;4749;51.398;5.466;2024-03-17T08:46:08;101915.69;;;11.72;100.00
9421;BME280;4749;51.398;5.466;2024-03-17T08:48:36;101914.09;;;11.80;100.00
9421;BME280;4749;51.398;5.466;2024-03-17T08:51:05;101920.38;;;11.90;100.00
9421;BME280;4749;51.398;5.466;2024-03-17T08:53:32;101918.78;;;12.01;100.00
9421;BME280;4749;51.398;5.466;2024-03-17T08:55:59;101911.94;;;12.15;100.00
9421;BME280;4749;51.398;5.466;2024-03-17T08:58:26;101917.34;;;12.24;100.00
9421;BME280;4749;51.398;5.466;2024-03-17T09:00:52;101918.41;;;12.38;100.00
9421;BME280;4749;51.398;5.466;2024-03-17T09:03:19;101908.00;;;12.51;100.00
9421;BME280;4749;51.398;5.466;2024-03-17T09:05:47;101906.38;;;12.62;100.00
9421;BME280;4749;51.398;5.466;2024-03-17T09:08:22;101894.13;;;12.68;100.00
9421;BME280;4749;51.398;5.466;2024-03-17T09:10:50;101899.47;;;12.78;100.00
9421;BME280;4749;51.398;5.466;2024-03-17T09:13:22;101903.16;;;12.90;100.00
9421;BME280;4749;51.398;5.466;2024-03-17T09:16:00;101905.88;;;13.01;100.00
9421;BME280;4749;51.398;5.466;2024-03-17T09:18:33;101905.09;;;13.11;100.00
9421;BME280;4749;51.398;5.466;2024-03-17T09:21:00;101909.56;;;13.17;100.00
9421;BME280;4749;51.398;5.466;2024-03-17T09:23:27;101908.69;;;13.18;100.00
9421;BME280;4749;51.398;5.466;2024-03-17T09:26:10;101909.56;;;13.17;100.00
9421;BME280;4749;51.398;5.466;2024-03-17T09:28:42;101905.25;;;13.22;100.00
9421;BME280;4749;51.398;5.466;2024-03-17T09:31:08;101907.97;;;13.34;100.00
9421;BME280;4749;51.398;5.466;2024-03-17T09:33:36;101905.44;;;13.48;100.00
9421;BME280;4749;51.398;5.466;2024-03-17T09:36:08;101901.13;;;13.59;100.00
9421;BME280;4749;51.398;5.466;2024-03-17T09:38:37;101903.81;;;13.67;100.00
9421;BME280;4749;51.398;5.466;2024-03-17T09:41:06;101903.03;;;13.80;100.00
9421;BME280;4749;51.398;5.466;2024-03-17T09:43:34;101899.53;;;13.87;100.00
9421;BME280;4749;51.398;5.466;2024-03-17T09:46:05;101904.03;;;13.99;100.00
9421;BME280;4749;51.398;5.466;2024-03-17T09:48:32;101904.16;;;14.22;100.00
9421;BME280;4749;51.398;5.466;2024-03-17T09:51:01;101905.06;;;14.36;100.00
9421;BME280;4749;51.398;5.466;2024-03-17T09:53:29;101906.03;;;14.53;100.00
9421;BME280;4749;51.398;5.466;2024-03-17T09:56:21;101906.97;;;14.69;100.00
9421;BME280;4749;51.398;5.466;2024-03-17T09:58:50;101901.69;;;14.78;100.00
9421;BME280;4749;51.398;5.466;2024-03-17T10:01:18;101898.19;;;14.85;100.00
9421;BME280;4749;51.398;5.466;2024-03-17T10:03:52;101903.50;;;14.90;100.00
9421;BME280;4749;51.398;5.466;2024-03-17T10:06:22;101902.63;;;14.91;100.00
9421;BME280;4749;51.398;5.466;2024-03-17T10:08:55;101906.16;;;14.90;100.00
9421;BME280;4749;51.398;5.466;2024-03-17T10:11:23;101897.28;;;14.88;100.00
9421;BME280;4749;51.398;5.466;2024-03-17T10:14:02;101897.31;;;15.02;100.00
9421;BME280;4749;51.398;5.466;2024-03-17T10:16:31;101904.41;;;15.21;100.00
9421;BME280;4749;51.398;5.466;2024-03-17T10:19:25;101909.72;;;15.30;100.00
9421;BME280;4749;51.398;5.466;2024-03-17T10:22:00;101895.59;;;15.31;100.00
9421;BME280;4749;51.398;5.466;2024-03-17T10:24:28;101891.16;;;15.38;100.00
9421;BME280;4749;51.398;5.466;2024-03-17T10:27:01;101890.28;;;15.39;100.00
9421;BME280;4749;51.398;5.466;2024-03-17T10:29:35;101886.75;;;15.35;100.00
9421;BME280;4749;51.398;5.466;2024-03-17T10:32:14;101885.00;;;15.33;100.00
9421;BME280;4749;51.398;5.466;2024-03-17T10:34:40;101889.38;;;15.38;100.00
9421;BME280;4749;51.398;5.466;2024-03-17T10:37:16;101877.91;;;15.48;100.00
9421;BME280;4749;51.398;5.466;2024-03-17T10:39:52;101879.69;;;15.65;100.00
9421;BME280;4749;51.398;5.466;2024-03-17T10:42:29;101888.47;;;15.87;100.00
9421;BME280;4749;51.398;5.466;2024-03-17T10:44:58;101875.13;;;16.05;100.00
9421;BME280;4749;51.398;5.466;2024-03-17T10:47:26;101877.72;;;16.22;100.00
9421;BME280;4749;51.398;5.466;2024-03-17T10:49:54;101875.00;;;16.42;100.00
9421;BME280;4749;51.398;5.466;2024-03-17T10:52:23;101879.28;;;16.63;100.00
9421;BME280;4749;51.398;5.466;2024-03-17T10:54:53;101879.16;;;16.88;100.00
9421;BME280;4749;51.398;5.466;2024-03-17T10:57:46;101889.63;;;17.10;100.00
9421;BME280;4749;51.398;5.466;2024-03-17T11:00:18;101876.25;;;17.24;100.00
9421;BME280;4749;51.398;5.466;2024-03-17T11:02:45;101879.66;;;17.36;100.00
9421;BME280;4749;51.398;5.466;2024-03-17T11:05:23;101880.50;;;17.43;100.00
9421;BME280;4749;51.398;5.466;2024-03-17T11:07:52;101880.47;;;17.46;100.00
9421;BME280;4749;51.398;5.466;2024-03-17T11:12:50;101884.78;;;17.56;100.00
9421;BME280;4749;51.398;5.466;2024-03-17T11:17:50;101881.16;;;17.66;100.00
9421;BME280;4749;51.398;5.466;2024-03-17T11:20:27;101879.31;;;17.76;100.00
9421;BME280;4749;51.398;5.466;2024-03-17T11:22:57;101885.47;;;17.83;100.00
9421;BME280;4749;51.398;5.466;2024-03-17T11:25:36;101882.75;;;17.86;100.00
9421;BME280;4749;51.398;5.466;2024-03-17T11:28:09;101887.13;;;17.91;100.00
9421;BME280;4749;51.398;5.466;2024-03-17T11:30:48;101883.47;;;17.98;100.00
9421;BME280;4749;51.398;5.466;2024-03-17T11:39:08;101881.78;;;17.93;100.00
9421;BME280;4749;51.398;5.466;2024-03-17T11:41:45;101875.66;;;17.86;100.00
9421;BME280;4749;51.398;5.466;2024-03-17T11:44:26;101881.88;;;17.82;100.00
9421;BME280;4749;51.398;5.466;2024-03-17T11:47:04;101870.44;;;17.77;100.00
9421;BME280;4749;51.398;5.466;2024-03-17T11:49:35;101872.25;;;17.75;100.00
9421;BME280;4749;51.398;5.466;2024-03-17T11:52:12;101865.22;;;17.66;100.00
9421;BME280;4749;51.398;5.466;2024-03-17T11:54:41;101858.25;;;17.53;100.00
9421;BME280;4749;51.398;5.466;2024-03-17T11:57:13;101857.47;;;17.42;100.00
9421;BME280;4749;51.398;5.466;2024-03-17T11:59:40;101850.47;;;17.30;100.00
9421;BME280;4749;51.398;5.466;2024-03-17T12:02:21;101846.13;;;17.22;100.00
9421;BME280;4749;51.398;5.466;2024-03-17T12:04:48;101836.44;;;17.14;100.00
9421;BME280;4749;51.398;5.466;2024-03-17T12:07:20;101836.53;;;17.08;100.00
9421;BME280;4749;51.398;5.466;2024-03-17T12:09:48;101832.13;;;17.03;100.00
9421;BME280;4749;51.398;5.466;2024-03-17T12:12:25;101825.06;;;17.02;100.00
9421;BME280;4749;51.398;5.466;2024-03-17T12:15:01;101819.75;;;16.97;100.00
9421;BME280;4749;51.398;5.466;2024-03-17T12:17:28;101825.06;;;16.97;100.00
9421;BME280;4749;51.398;5.466;2024-03-17T12:19:55;101816.22;;;17.00;100.00
9421;BME280;4749;51.398;5.466;2024-03-17T12:22:25;101818.78;;;17.10;100.00
9421;BME280;4749;51.398;5.466;2024-03-17T12:24:54;101816.88;;;17.23;100.00
9421;BME280;4749;51.398;5.466;2024-03-17T12:27:23;101809.66;;;17.37;100.00
9421;BME280;4749;51.398;5.466;2024-03-17T12:29:55;101807.75;;;17.49;100.00
9421;BME280;4749;51.398;5.466;2024-03-17T12:32:25;101813.88;;;17.58;100.00
9421;BME280;4749;51.398;5.466;2024-03-17T12:34:57;101810.25;;;17.64;100.00
9421;BME280;4749;51.398;5.466;2024-03-17T12:37:27;101804.09;;;17.62;100.00
9421;BME280;4749;51.398;5.466;2024-03-17T12:39:57;101804.97;;;17.61;100.00
9421;BME280;4749;51.398;5.466;2024-03-17T12:42:29;101795.28;;;17.58;100.00
9421;BME280;4749;51.398;5.466;2024-03-17T12:45:00;101792.56;;;17.61;100.00
9421;BME280;4749;51.398;5.466;2024-03-17T12:47:32;101795.22;;;17.61;100.00
9421;BME280;4749;51.398;5.466;2024-03-17T12:50:02;101799.59;;;17.65;100.00
9421;BME280;4749;51.398;5.466;2024-03-17T12:52:33;101796.88;;;17.73;100.00
9421;BME280;4749;51.398;5.466;2024-03-17T12:55:19;101794.09;;;17.82;100.00
9421;BME280;4749;51.398;5.466;2024-03-17T13:01:05;101794.16;;;17.79;100.00
9421;BME280;4749;51.398;5.466;2024-03-17T13:03:37;101791.56;;;17.75;100.00
9421;BME280;4749;51.398;5.466;2024-03-17T13:06:09;101789.78;;;17.75;100.00
9421;BME280;4749;51.398;5.466;2024-03-17T13:08:36;101775.50;;;17.84;100.00
9421;BME280;4749;51.398;5.466;2024-03-17T13:11:02;101771.72;;;18.02;100.00
9421;BME280;4749;51.398;5.466;2024-03-17T13:13:31;101771.31;;;18.29;100.00
9421;BME280;4749;51.398;5.466;2024-03-17T13:15:57;101769.03;;;18.63;100.00
9421;BME280;4749;51.398;5.466;2024-03-17T13:18:25;101767.59;;;18.98;100.00
9421;BME280;4749;51.398;5.466;2024-03-17T13:20:51;101766.41;;;19.14;100.00
9421;BME280;4749;51.398;5.466;2024-03-17T13:23:20;101758.22;;;19.23;100.00
9421;BME280;4749;51.398;5.466;2024-03-17T13:25:50;101756.59;;;19.18;100.00
9421;BME280;4749;51.398;5.466;2024-03-17T13:28:17;101752.16;;;19.15;100.00
9421;BME280;4749;51.398;5.466;2024-03-17T13:30:43;101746.78;;;19.18;100.00